Badlands National Park, SD

7:01 AM MST on February 10, 2016 (GMT -0700)
Cactus Flat | | Change Station
CLOSE
Current Station
Personal Weather Station
Location: South Dakota, SD
Elevation: 2530 ft
Nearby Weather Stations

Elev 2530 ft 43.81 °N, 101.89 °W | Updated 4 seconds ago

Clear
Clear
37.4 °F
Feels Like 31 °F
N
9.8
Wind Variable Wind from West
Gusts 12.3 mph

Today
High -- | Low -- °F
--% Chance of Precip.
Yesterday
High -- | Low -- °F
Precip. -- in
Pressure 29.91 in
Visibility 10.0 miles
Clouds Clear
Windchill 31 °F
Dew Point 26 °F
Humidity 62%
Rainfall 0.00 in
Snow Depth Not available.
6:54 AM 5:10 PM
Waxing Crescent, 5% visible
METAR KPHP 101355Z AUTO 27009KT 10SM CLR M01/M03 A2987 RMK AO2 SLP128 T10111033
Pressure 29.91 in
Visibility 10.0 miles
Clouds Clear
Windchill 31 °F
Dew Point 26 °F
Humidity 62%
Rainfall 0.00 in
Snow Depth Not available.
6:54 AM 5:10 PM
Waxing Crescent, 5% visible
METAR KPHP 101355Z AUTO 27009KT 10SM CLR M01/M03 A2987 RMK AO2 SLP128 T10111033

10-Day Weather Forecast

Almanac

Astronomy

Feb. 10, 2016 Rise Set
Actual Time
Civil Twilight
Nautical Twilight
Astronomical Twilight
Moon
Length of Visible Light
Length of Day
Tomorrow will be .
, % of the Moon is Illuminated

Today's Extremes

State Highs State Lows

Community

WunderPhotos

Upload Photos

1,891,846 photos uploaded!

WunderBlog® & News

Nearby

Air Quality

  Air Quality AQ Index Pollutant
Not available.

Snow Depth

Station Depth Elevation

Earthquake Activity

City Distance Mag. Time & Date
Minimum magnitude displayed is 2.5.

Coastal Water Temperatures

Place Temperature

Stations

Nearby Weather Stations

Station Location Temp. Windchill Dew Point Humidity Wind Precip. Elev Updated Type
                   

Watches & Warnings

There are currently no watches in effect.